Time;durP1;ratioP1;P1;durP2;ratioP2;P2;SDS_P1;SDS_P2;PMS_P1;PMS_P2;Temp;Humidity;BMP_temperature;BMP_pressure;BME280_temperature;BME280_humidity;BME280_pressure;Samples;Min_cycle;Max_cycle;Signal;HPM_P1;HPM_P2
2021/12/28 00:01:34;;;;;;;;;;;3.40;99.90;;;;;;6147393;23;19933;-82
2021/12/28 00:04:05;;;;;;;;;;;4.30;99.90;;;;;;6147821;23;19939;-80
2021/12/28 00:06:31;;;;;;;;;;;3.50;99.90;;;;;;6145470;23;19932;-80
2021/12/28 00:08:59;;;;;;;;;;;3.40;99.90;;;;;;6121125;23;19925;-78
2021/12/28 00:11:25;;;;;;;;;;;3.50;99.90;;;;;;6121229;23;20002;-80
2021/12/28 00:13:52;;;;;;;;;;;3.50;99.90;;;;;;6145743;23;20001;-78
2021/12/28 00:18:43;;;;;;;;;;;3.60;99.90;;;;;;6125053;23;19921;-79
2021/12/28 00:21:15;;;;;;;;;;;3.60;99.90;;;;;;6124727;23;19930;-79
2021/12/28 00:23:41;;;;;;;;;;;3.60;99.90;;;;;;6149240;23;19920;-80
2021/12/28 00:26:11;;;;;;;;;;;3.60;99.90;;;;;;6125408;23;20290;-80
2021/12/28 00:28:37;;;;;;;;;;;3.60;99.90;;;;;;6148477;23;19925;-80
2021/12/28 00:31:11;;;;;;;;;;;3.70;99.90;;;;;;6150201;23;19968;-81
2021/12/28 00:33:37;;;;;;;;;;;3.80;99.90;;;;;;6149349;23;20007;-79
2021/12/28 00:36:03;;;;;;;;;;;3.80;99.90;;;;;;6149168;23;19956;-80
2021/12/28 00:38:29;;;;;;;;;;;3.70;99.90;;;;;;6149425;23;19944;-80
2021/12/28 00:40:55;;;;;;;;;;;4.20;99.90;;;;;;6124774;23;20407;-80
2021/12/28 00:43:21;;;;;;;;;;;3.70;99.90;;;;;;6123094;23;19928;-78
2021/12/28 00:45:49;;;;;;;;;;;4.40;99.90;;;;;;6124304;23;19925;-78
2021/12/28 00:48:15;;;;;;;;;;;3.60;99.90;;;;;;6124404;23;19999;-78
2021/12/28 00:50:41;;;;;;;;;;;3.70;99.90;;;;;;6148273;23;20358;-78
2021/12/28 00:53:07;;;;;;;;;;;3.90;99.90;;;;;;6124268;23;19928;-81
2021/12/28 00:55:33;;;;;;;;;;;3.80;99.90;;;;;;6148616;23;19921;-80
2021/12/28 00:57:58;;;;;;;;;;;3.80;99.90;;;;;;6122373;23;19920;-79
2021/12/28 01:00:26;;;;;;;;;;;3.80;99.90;;;;;;6149400;23;19920;-78
2021/12/28 01:02:51;;;;;;;;;;;3.80;99.90;;;;;;6124436;23;20395;-78
2021/12/28 01:05:17;;;;;;;;;;;3.90;99.90;;;;;;6147844;23;19924;-79
2021/12/28 01:07:43;;;;;;;;;;;3.70;99.90;;;;;;6149308;23;20333;-78
2021/12/28 01:10:22;;;;;;;;;;;4.80;99.90;;;;;;6149132;23;19999;-79
2021/12/28 01:12:56;;;;;;;;;;;3.90;99.90;;;;;;6147916;23;19921;-78
2021/12/28 01:15:24;;;;;;;;;;;4.20;99.90;;;;;;6149064;23;19940;-79
2021/12/28 01:17:53;;;;;;;;;;;3.90;99.90;;;;;;6148598;23;20276;-80
2021/12/28 01:20:19;;;;;;;;;;;4.80;99.90;;;;;;6124640;23;19929;-79
2021/12/28 01:22:47;;;;;;;;;;;4.90;99.90;;;;;;6148911;23;19917;-78
2021/12/28 01:25:14;;;;;;;;;;;4.00;99.90;;;;;;6123472;23;19921;-80
2021/12/28 01:27:39;;;;;;;;;;;3.90;99.90;;;;;;6148619;23;19927;-79
2021/12/28 01:30:12;;;;;;;;;;;4.00;99.90;;;;;;6124278;23;19921;-80
2021/12/28 01:32:38;;;;;;;;;;;4.00;99.90;;;;;;6148250;23;19924;-79
2021/12/28 01:35:05;;;;;;;;;;;3.90;99.90;;;;;;6148448;23;19928;-79
2021/12/28 01:37:31;;;;;;;;;;;4.00;99.90;;;;;;6123761;23;20581;-79
2021/12/28 01:39:57;;;;;;;;;;;4.00;99.90;;;;;;6146448;23;19995;-79
2021/12/28 01:42:22;;;;;;;;;;;4.00;99.90;;;;;;6123478;23;19927;-79
2021/12/28 01:44:48;;;;;;;;;;;4.60;99.90;;;;;;6124042;23;19921;-79
2021/12/28 01:47:16;;;;;;;;;;;4.00;99.90;;;;;;6122841;23;20242;-79
2021/12/28 01:49:41;;;;;;;;;;;4.50;99.90;;;;;;6148187;23;19928;-79
2021/12/28 01:52:07;;;;;;;;;;;3.80;99.90;;;;;;6124041;23;19924;-78
2021/12/28 01:54:36;;;;;;;;;;;4.10;99.90;;;;;;6147448;23;19944;-78
2021/12/28 01:57:01;;;;;;;;;;;4.60;99.90;;;;;;6147544;23;20016;-78
2021/12/28 01:59:27;;;;;;;;;;;5.10;99.90;;;;;;6148299;23;19963;-78
2021/12/28 02:01:59;;;;;;;;;;;4.10;99.90;;;;;;6147557;23;20243;-78
2021/12/28 02:04:27;;;;;;;;;;;4.00;99.90;;;;;;6148404;23;20432;-78
2021/12/28 02:06:54;;;;;;;;;;;3.90;99.90;;;;;;6150505;23;19920;-77
2021/12/28 02:09:20;;;;;;;;;;;4.00;99.90;;;;;;6148283;23;19988;-78
2021/12/28 02:11:46;;;;;;;;;;;4.10;99.90;;;;;;6148108;23;20248;-78
2021/12/28 02:14:21;;;;;;;;;;;4.10;99.90;;;;;;6122204;23;19925;-78
2021/12/28 02:16:47;;;;;;;;;;;4.00;99.90;;;;;;6149099;23;19927;-78
2021/12/28 02:19:14;;;;;;;;;;;6.10;99.90;;;;;;6148172;23;20503;-78
2021/12/28 02:21:40;;;;;;;;;;;4.10;99.90;;;;;;6148671;23;19929;-78
2021/12/28 02:24:07;;;;;;;;;;;5.80;99.90;;;;;;6124448;23;20324;-78
2021/12/28 02:26:38;;;;;;;;;;;4.10;99.90;;;;;;6148263;23;19928;-78
2021/12/28 02:29:04;;;;;;;;;;;4.10;99.90;;;;;;6121096;23;19925;-78
2021/12/28 02:31:30;;;;;;;;;;;4.70;99.90;;;;;;6148914;23;19979;-79
2021/12/28 02:33:56;;;;;;;;;;;4.10;99.90;;;;;;6148062;23;20282;-78
2021/12/28 02:36:22;;;;;;;;;;;3.60;99.90;;;;;;6123348;23;19929;-78
2021/12/28 02:38:48;;;;;;;;;;;4.20;99.90;;;;;;6123418;23;20047;-78
2021/12/28 02:41:14;;;;;;;;;;;4.20;99.90;;;;;;6123958;23;19920;-79
2021/12/28 02:43:40;;;;;;;;;;;4.20;99.90;;;;;;6146632;23;19928;-78
2021/12/28 02:46:06;;;;;;;;;;;4.20;99.90;;;;;;6149102;23;20305;-78
2021/12/28 02:48:34;;;;;;;;;;;4.20;99.90;;;;;;6148030;23;19920;-78
2021/12/28 02:51:01;;;;;;;;;;;4.20;99.90;;;;;;6122610;23;19920;-78
2021/12/28 02:53:27;;;;;;;;;;;4.20;99.90;;;;;;6148044;23;19943;-78
2021/12/28 02:55:53;;;;;;;;;;;4.30;99.90;;;;;;6147759;23;19920;-78
2021/12/28 02:58:23;;;;;;;;;;;4.30;99.90;;;;;;6121330;23;19928;-77
2021/12/28 03:01:00;;;;;;;;;;;4.30;99.90;;;;;;6148408;23;20595;-78
2021/12/28 03:03:26;;;;;;;;;;;4.40;99.90;;;;;;6122656;23;19959;-78
2021/12/28 03:05:53;;;;;;;;;;;4.30;99.90;;;;;;6147838;23;20261;-78
2021/12/28 03:08:21;;;;;;;;;;;4.30;99.90;;;;;;6147447;23;19956;-79
2021/12/28 03:10:48;;;;;;;;;;;4.30;99.90;;;;;;6121730;23;20227;-79
2021/12/28 03:13:20;;;;;;;;;;;4.30;99.90;;;;;;6146769;23;20002;-78
2021/12/28 03:15:45;;;;;;;;;;;4.40;99.90;;;;;;6117735;23;20296;-78
2021/12/28 03:18:11;;;;;;;;;;;6.40;99.90;;;;;;6121916;23;19992;-79
2021/12/28 03:20:37;;;;;;;;;;;5.00;99.90;;;;;;6147730;23;19948;-79
2021/12/28 03:23:03;;;;;;;;;;;5.10;99.90;;;;;;6122953;23;19929;-78
2021/12/28 03:25:28;;;;;;;;;;;4.50;99.90;;;;;;6120762;23;20027;-79
2021/12/28 03:27:54;;;;;;;;;;;4.20;99.90;;;;;;6120006;23;20349;-79
2021/12/28 03:30:20;;;;;;;;;;;5.40;99.90;;;;;;6121462;23;20310;-78
2021/12/28 03:32:45;;;;;;;;;;;5.70;99.90;;;;;;6147671;23;19952;-79
2021/12/28 03:35:12;;;;;;;;;;;4.50;99.90;;;;;;6147828;23;19925;-78
2021/12/28 03:37:38;;;;;;;;;;;4.00;99.90;;;;;;6122656;23;19928;-78
2021/12/28 03:40:05;;;;;;;;;;;4.50;99.90;;;;;;6122199;23;19921;-78
2021/12/28 03:42:30;;;;;;;;;;;4.60;99.90;;;;;;6148120;23;19940;-79
2021/12/28 03:44:56;;;;;;;;;;;4.60;99.90;;;;;;6122543;23;20035;-79
2021/12/28 03:47:21;;;;;;;;;;;5.30;99.90;;;;;;6147419;23;19928;-78
2021/12/28 03:49:47;;;;;;;;;;;4.60;99.90;;;;;;6124085;23;20014;-78
2021/12/28 03:52:12;;;;;;;;;;;4.30;99.90;;;;;;6124760;23;20017;-79
2021/12/28 03:54:38;;;;;;;;;;;4.60;99.90;;;;;;6121106;23;20433;-79
2021/12/28 03:57:04;;;;;;;;;;;4.60;99.90;;;;;;6150435;23;19938;-79
2021/12/28 03:59:30;;;;;;;;;;;4.50;99.90;;;;;;6124877;23;19967;-79
2021/12/28 04:01:56;;;;;;;;;;;4.60;99.90;;;;;;6124471;23;20063;-79
2021/12/28 04:04:21;;;;;;;;;;;4.60;99.90;;;;;;6149461;23;19991;-79
2021/12/28 04:06:47;;;;;;;;;;;4.50;99.90;;;;;;6148803;23;20000;-79
2021/12/28 04:09:20;;;;;;;;;;;4.60;99.90;;;;;;6149528;23;20324;-79
2021/12/28 04:11:46;;;;;;;;;;;4.60;99.90;;;;;;6124085;23;19921;-79
2021/12/28 04:14:11;;;;;;;;;;;5.00;99.90;;;;;;6123921;23;19967;-79
2021/12/28 04:16:37;;;;;;;;;;;4.60;99.90;;;;;;6123718;23;19948;-79
2021/12/28 04:19:04;;;;;;;;;;;4.60;99.90;;;;;;6122512;23;19944;-79
2021/12/28 04:21:29;;;;;;;;;;;4.60;99.90;;;;;;6148712;23;19936;-79
2021/12/28 04:23:55;;;;;;;;;;;4.60;99.90;;;;;;6123286;23;20664;-79
2021/12/28 04:26:21;;;;;;;;;;;4.60;99.90;;;;;;6123956;23;20273;-78
2021/12/28 04:28:46;;;;;;;;;;;4.50;99.90;;;;;;6147657;23;19924;-78
2021/12/28 04:31:12;;;;;;;;;;;4.50;99.90;;;;;;6149066;23;19939;-77
2021/12/28 04:33:38;;;;;;;;;;;5.40;99.90;;;;;;6124141;23;19921;-78
2021/12/28 04:36:07;;;;;;;;;;;4.60;99.90;;;;;;6124255;23;19979;-78
2021/12/28 04:38:32;;;;;;;;;;;4.60;99.90;;;;;;6147232;23;20274;-78
2021/12/28 04:40:58;;;;;;;;;;;5.50;99.90;;;;;;6122964;23;20019;-78
2021/12/28 04:43:23;;;;;;;;;;;4.70;99.90;;;;;;6148512;23;19925;-78
2021/12/28 04:45:49;;;;;;;;;;;4.70;99.90;;;;;;6124719;23;19998;-79
2021/12/28 04:48:14;;;;;;;;;;;4.70;99.90;;;;;;6125121;23;19920;-78
2021/12/28 04:50:42;;;;;;;;;;;4.70;99.90;;;;;;6148166;23;19924;-79
2021/12/28 04:53:11;;;;;;;;;;;4.70;99.90;;;;;;6149472;23;19995;-78
2021/12/28 04:55:37;;;;;;;;;;;4.70;99.90;;;;;;6124013;23;19992;-78
2021/12/28 04:58:03;;;;;;;;;;;4.70;99.90;;;;;;6148617;23;20256;-78
2021/12/28 05:00:29;;;;;;;;;;;4.80;99.90;;;;;;6123843;23;19996;-79
2021/12/28 05:02:56;;;;;;;;;;;4.80;99.90;;;;;;6148363;23;19951;-79
2021/12/28 05:05:21;;;;;;;;;;;4.80;99.90;;;;;;6148519;23;19924;-79
2021/12/28 05:07:47;;;;;;;;;;;4.80;99.90;;;;;;6149337;23;19920;-79
2021/12/28 05:10:13;;;;;;;;;;;4.80;99.90;;;;;;6147436;23;19924;-79
2021/12/28 05:12:39;;;;;;;;;;;4.90;99.90;;;;;;6149332;23;19927;-79
2021/12/28 05:15:05;;;;;;;;;;;4.90;99.90;;;;;;6150545;23;19991;-78
2021/12/28 05:17:31;;;;;;;;;;;4.90;99.90;;;;;;6150299;23;19979;-79
2021/12/28 05:19:57;;;;;;;;;;;4.90;99.90;;;;;;6148721;23;19921;-78
2021/12/28 05:22:22;;;;;;;;;;;4.90;99.90;;;;;;6151283;23;20044;-79
2021/12/28 05:24:48;;;;;;;;;;;5.00;99.90;;;;;;6122933;23;19951;-78
2021/12/28 05:27:17;;;;;;;;;;;5.00;99.90;;;;;;6151509;23;19998;-78
2021/12/28 05:29:42;;;;;;;;;;;5.00;99.90;;;;;;6150545;23;20572;-81
2021/12/28 05:32:08;;;;;;;;;;;5.00;99.90;;;;;;6123688;23;19916;-79
2021/12/28 05:34:34;;;;;;;;;;;5.00;99.90;;;;;;6149187;23;19925;-78
2021/12/28 05:36:59;;;;;;;;;;;5.00;99.90;;;;;;6149259;23;19929;-79
2021/12/28 05:39:25;;;;;;;;;;;5.00;99.90;;;;;;6147334;23;19973;-79
2021/12/28 05:41:50;;;;;;;;;;;5.00;99.90;;;;;;6123423;23;19959;-78
2021/12/28 05:44:17;;;;;;;;;;;5.00;99.90;;;;;;6149977;23;19921;-79
2021/12/28 05:46:44;;;;;;;;;;;5.00;99.90;;;;;;6147352;23;19920;-78
2021/12/28 05:49:09;;;;;;;;;;;5.00;99.90;;;;;;6149169;23;19995;-78
2021/12/28 05:51:35;;;;;;;;;;;5.00;99.90;;;;;;6150534;23;20035;-78
2021/12/28 05:54:00;;;;;;;;;;;5.00;99.90;;;;;;6123554;23;19971;-78
2021/12/28 05:56:26;;;;;;;;;;;5.00;99.90;;;;;;6123154;23;19925;-79
2021/12/28 05:58:52;;;;;;;;;;;5.00;99.90;;;;;;6123855;23;19975;-79
2021/12/28 06:01:17;;;;;;;;;;;5.00;99.90;;;;;;6122182;23;19995;-78
2021/12/28 06:03:43;;;;;;;;;;;5.00;99.90;;;;;;6143868;23;19925;-78
2021/12/28 06:06:08;;;;;;;;;;;5.00;99.90;;;;;;6147680;23;19921;-77
2021/12/28 06:08:34;;;;;;;;;;;5.00;99.90;;;;;;6149120;23;19955;-78
2021/12/28 06:10:59;;;;;;;;;;;5.00;99.90;;;;;;6121268;23;19935;-78
2021/12/28 06:13:25;;;;;;;;;;;5.00;99.90;;;;;;6147286;23;19952;-78
2021/12/28 06:15:50;;;;;;;;;;;5.00;99.90;;;;;;6122581;23;19928;-78
2021/12/28 06:18:16;;;;;;;;;;;5.00;99.90;;;;;;6122488;23;19921;-78
2021/12/28 06:20:42;;;;;;;;;;;5.00;99.90;;;;;;6121787;23;19967;-78
2021/12/28 06:23:07;;;;;;;;;;;5.00;99.90;;;;;;6143791;23;20291;-78
2021/12/28 06:25:33;;;;;;;;;;;5.00;99.90;;;;;;6146333;23;20365;-81
2021/12/28 06:27:58;;;;;;;;;;;5.00;99.90;;;;;;6145554;23;19924;-81
2021/12/28 06:30:24;;;;;;;;;;;5.00;99.90;;;;;;6147351;23;20030;-81
2021/12/28 06:32:50;;;;;;;;;;;5.00;99.90;;;;;;6147459;23;19925;-82
2021/12/28 06:35:16;;;;;;;;;;;5.00;99.90;;;;;;6122992;23;19927;-81
2021/12/28 06:37:41;;;;;;;;;;;5.00;99.90;;;;;;6147773;23;19920;-81
2021/12/28 06:40:07;;;;;;;;;;;5.00;99.90;;;;;;6148129;23;19924;-82
2021/12/28 06:42:33;;;;;;;;;;;5.00;99.90;;;;;;6121867;23;19987;-82
2021/12/28 06:44:59;;;;;;;;;;;5.00;99.90;;;;;;6148581;23;19924;-83
2021/12/28 06:47:24;;;;;;;;;;;5.00;99.90;;;;;;6122485;23;20656;-82
2021/12/28 06:49:49;;;;;;;;;;;5.00;99.90;;;;;;6122720;23;19920;-82
2021/12/28 06:52:15;;;;;;;;;;;5.10;99.90;;;;;;6147291;23;20253;-83
2021/12/28 06:54:41;;;;;;;;;;;5.10;99.90;;;;;;6147997;23;19920;-82
2021/12/28 06:57:08;;;;;;;;;;;5.10;99.90;;;;;;6146381;23;19921;-81
2021/12/28 06:59:37;;;;;;;;;;;5.00;99.90;;;;;;6123633;23;19920;-82
2021/12/28 07:02:04;;;;;;;;;;;5.10;99.90;;;;;;6149000;23;20237;-81
2021/12/28 07:04:29;;;;;;;;;;;5.10;99.90;;;;;;6149991;23;20008;-83
2021/12/28 07:06:58;;;;;;;;;;;5.00;99.90;;;;;;6150213;23;19924;-82
2021/12/28 07:09:23;;;;;;;;;;;5.10;99.90;;;;;;6146299;23;20056;-82
2021/12/28 07:11:49;;;;;;;;;;;5.10;99.90;;;;;;6145728;23;20731;-81
2021/12/28 07:14:14;;;;;;;;;;;5.10;99.90;;;;;;6147062;23;19936;-81
2021/12/28 07:16:40;;;;;;;;;;;5.10;99.90;;;;;;6143052;23;20293;-81
2021/12/28 07:19:10;;;;;;;;;;;5.10;99.90;;;;;;6148611;23;19983;-82
2021/12/28 07:21:39;;;;;;;;;;;5.10;99.90;;;;;;6145225;23;19920;-81
2021/12/28 07:24:05;;;;;;;;;;;5.00;99.90;;;;;;6146018;23;19921;-82
2021/12/28 07:26:31;;;;;;;;;;;5.00;99.90;;;;;;6148817;23;19927;-81
2021/12/28 07:28:56;;;;;;;;;;;5.00;99.90;;;;;;6147147;23;19999;-87
2021/12/28 07:31:22;;;;;;;;;;;5.00;99.90;;;;;;6120742;23;20300;-81
2021/12/28 07:33:48;;;;;;;;;;;5.00;99.90;;;;;;6146076;23;19920;-82
2021/12/28 07:36:13;;;;;;;;;;;5.10;99.90;;;;;;6148394;23;20008;-81
2021/12/28 07:38:39;;;;;;;;;;;5.00;99.90;;;;;;6146351;23;19948;-82
2021/12/28 07:41:04;;;;;;;;;;;5.50;99.90;;;;;;6120414;23;20304;-82
2021/12/28 07:43:30;;;;;;;;;;;5.00;99.90;;;;;;6146577;23;19925;-85
2021/12/28 07:45:55;;;;;;;;;;;5.00;99.90;;;;;;6146188;23;19999;-82
2021/12/28 07:48:21;;;;;;;;;;;5.00;99.90;;;;;;6146201;23;19983;-81
2021/12/28 07:50:46;;;;;;;;;;;5.00;99.90;;;;;;6147778;23;19920;-83
2021/12/28 07:53:12;;;;;;;;;;;5.00;99.90;;;;;;6143653;23;19956;-82
2021/12/28 07:55:37;;;;;;;;;;;5.00;99.90;;;;;;6145973;23;20058;-82
2021/12/28 07:58:03;;;;;;;;;;;5.10;99.90;;;;;;6149343;23;19920;-82
2021/12/28 08:00:29;;;;;;;;;;;5.10;99.90;;;;;;6146682;23;20523;-82
2021/12/28 08:02:54;;;;;;;;;;;5.10;99.90;;;;;;6146426;23;19926;-82
2021/12/28 08:05:20;;;;;;;;;;;5.10;99.90;;;;;;6147193;23;19921;-83
2021/12/28 08:07:46;;;;;;;;;;;5.10;99.90;;;;;;6122200;23;19927;-82
2021/12/28 08:10:12;;;;;;;;;;;5.10;99.90;;;;;;6121530;23;19947;-81
2021/12/28 08:12:38;;;;;;;;;;;5.10;99.90;;;;;;6123742;23;20027;-83
2021/12/28 08:15:04;;;;;;;;;;;5.10;99.90;;;;;;6146045;23;20321;-82
2021/12/28 08:17:30;;;;;;;;;;;5.10;99.90;;;;;;6148135;23;19928;-83
2021/12/28 08:19:56;;;;;;;;;;;5.10;99.90;;;;;;6146184;23;19932;-82
2021/12/28 08:22:21;;;;;;;;;;;5.10;99.90;;;;;;6148779;23;19921;-81
2021/12/28 08:24:47;;;;;;;;;;;5.10;99.90;;;;;;6146816;23;20030;-82
2021/12/28 08:27:12;;;;;;;;;;;5.10;99.90;;;;;;6147199;23;20419;-82
2021/12/28 08:29:38;;;;;;;;;;;5.10;99.90;;;;;;6147972;23;20342;-82
2021/12/28 08:32:03;;;;;;;;;;;5.10;99.90;;;;;;6147942;23;19923;-82
2021/12/28 08:34:29;;;;;;;;;;;5.10;99.90;;;;;;6146322;23;20348;-86
2021/12/28 08:36:54;;;;;;;;;;;5.20;99.90;;;;;;6149648;23;20301;-83
2021/12/28 08:39:20;;;;;;;;;;;5.10;99.90;;;;;;6125491;23;20257;-83
2021/12/28 08:41:45;;;;;;;;;;;5.20;99.90;;;;;;6124232;23;20381;-83
2021/12/28 08:44:11;;;;;;;;;;;5.10;99.90;;;;;;6150448;23;19939;-83
2021/12/28 08:46:39;;;;;;;;;;;5.10;99.90;;;;;;6125386;23;20250;-83
2021/12/28 08:49:05;;;;;;;;;;;5.10;99.90;;;;;;6149166;23;19920;-83
2021/12/28 08:51:30;;;;;;;;;;;5.20;99.90;;;;;;6149582;23;20341;-83
2021/12/28 08:53:57;;;;;;;;;;;5.60;99.90;;;;;;6151472;23;20376;-85
2021/12/28 08:56:23;;;;;;;;;;;5.20;99.90;;;;;;6148178;23;20316;-88
2021/12/28 08:58:48;;;;;;;;;;;5.20;99.90;;;;;;6150004;23;19991;-84
2021/12/28 09:01:14;;;;;;;;;;;5.20;99.90;;;;;;6150175;23;20235;-84
2021/12/28 09:03:39;;;;;;;;;;;5.20;99.90;;;;;;6148739;23;19955;-83
2021/12/28 09:06:05;;;;;;;;;;;5.20;99.90;;;;;;6125393;23;20289;-85
2021/12/28 09:08:31;;;;;;;;;;;5.20;99.90;;;;;;6125141;23;20350;-85
2021/12/28 09:10:57;;;;;;;;;;;5.20;99.90;;;;;;6148436;23;19952;-85
2021/12/28 09:13:22;;;;;;;;;;;5.30;99.90;;;;;;6149906;23;19920;-85
2021/12/28 09:15:48;;;;;;;;;;;5.30;99.90;;;;;;6125540;23;19921;-83
2021/12/28 09:18:14;;;;;;;;;;;5.40;99.90;;;;;;6149248;23;20381;-88
2021/12/28 09:20:39;;;;;;;;;;;5.40;99.90;;;;;;6125856;23;20317;-86
2021/12/28 09:23:06;;;;;;;;;;;5.40;99.90;;;;;;6149902;23;19921;-86
2021/12/28 09:25:31;;;;;;;;;;;5.40;99.90;;;;;;6123687;23;19967;-85
2021/12/28 09:27:57;;;;;;;;;;;5.50;99.90;;;;;;6149791;23;20007;-85
2021/12/28 09:30:23;;;;;;;;;;;5.50;99.90;;;;;;6148883;23;19920;-85
2021/12/28 09:32:48;;;;;;;;;;;5.50;99.90;;;;;;6149436;23;20313;-86
2021/12/28 09:35:14;;;;;;;;;;;5.50;99.90;;;;;;6149057;23;19925;-86
2021/12/28 09:37:40;;;;;;;;;;;5.60;99.90;;;;;;6156458;23;19959;-88
2021/12/28 09:40:07;;;;;;;;;;;5.60;99.90;;;;;;6124590;23;19921;-89
2021/12/28 09:42:32;;;;;;;;;;;5.70;99.90;;;;;;6149790;23;20011;-86
2021/12/28 09:44:58;;;;;;;;;;;5.70;99.90;;;;;;6146539;23;20344;-84
2021/12/28 09:47:24;;;;;;;;;;;5.70;99.90;;;;;;6147729;23;19927;-86
2021/12/28 09:49:50;;;;;;;;;;;5.70;99.90;;;;;;6123192;23;19924;-86
2021/12/28 09:52:16;;;;;;;;;;;5.70;99.90;;;;;;6123674;23;20336;-86
2021/12/28 09:54:42;;;;;;;;;;;5.70;99.90;;;;;;6148766;23;20004;-85
2021/12/28 09:57:07;;;;;;;;;;;5.70;99.90;;;;;;6149648;23;19952;-86
2021/12/28 09:59:33;;;;;;;;;;;5.80;99.90;;;;;;6149468;23;19920;-88
2021/12/28 10:01:59;;;;;;;;;;;5.80;99.90;;;;;;6149972;23;19929;-84
2021/12/28 10:04:26;;;;;;;;;;;5.80;99.90;;;;;;6126430;23;19921;-88
2021/12/28 10:06:52;;;;;;;;;;;5.90;99.90;;;;;;6148834;23;19928;-90
2021/12/28 10:09:21;;;;;;;;;;;5.90;99.90;;;;;;6150617;23;20198;-88
2021/12/28 10:11:50;;;;;;;;;;;5.90;99.90;;;;;;6149462;23;20015;-86
2021/12/28 10:14:23;;;;;;;;;;;6.00;99.90;;;;;;6123295;23;20264;-87
2021/12/28 10:16:51;;;;;;;;;;;6.00;99.90;;;;;;6147987;23;20045;-87
2021/12/28 10:19:38;;;;;;;;;;;6.00;99.90;;;;;;6148369;23;19920;-86
2021/12/28 10:22:21;;;;;;;;;;;6.00;99.90;;;;;;6149560;23;19925;-89
2021/12/28 10:24:48;;;;;;;;;;;6.10;99.90;;;;;;6149431;23;19932;-87
2021/12/28 10:27:15;;;;;;;;;;;6.10;99.90;;;;;;6124487;23;19960;-87
2021/12/28 10:29:41;;;;;;;;;;;6.10;99.90;;;;;;6149961;23;19956;-89
2021/12/28 10:32:26;;;;;;;;;;;6.10;99.90;;;;;;6150095;23;19928;-88
2021/12/28 10:34:56;;;;;;;;;;;6.10;99.90;;;;;;6147967;23;19921;-85
2021/12/28 10:37:23;;;;;;;;;;;6.10;99.90;;;;;;6147529;23;20001;-88
2021/12/28 10:39:51;;;;;;;;;;;6.10;99.90;;;;;;6148108;23;20012;-84
2021/12/28 10:42:36;;;;;;;;;;;6.10;99.90;;;;;;6148182;23;19987;-87
2021/12/28 10:45:01;;;;;;;;;;;6.10;99.90;;;;;;6123230;23;19929;-84
2021/12/28 10:47:28;;;;;;;;;;;6.20;99.90;;;;;;6124766;23;20278;-87
2021/12/28 10:49:53;;;;;;;;;;;6.20;99.90;;;;;;6147237;23;19921;-85
2021/12/28 10:52:25;;;;;;;;;;;6.20;99.90;;;;;;6146372;23;20338;-88
2021/12/28 10:54:50;;;;;;;;;;;6.20;99.90;;;;;;6147934;23;19925;-86
2021/12/28 10:57:16;;;;;;;;;;;6.20;99.90;;;;;;6146346;23;19975;-85
2021/12/28 10:59:41;;;;;;;;;;;6.20;99.90;;;;;;6123127;23;19921;-85
2021/12/28 11:02:07;;;;;;;;;;;6.20;99.90;;;;;;6122567;23;19975;-84
2021/12/28 11:04:35;;;;;;;;;;;6.20;99.90;;;;;;6145611;23;19995;-85
2021/12/28 11:07:02;;;;;;;;;;;6.20;99.90;;;;;;6145678;23;19924;-86
2021/12/28 11:09:28;;;;;;;;;;;6.20;99.90;;;;;;6144582;23;19927;-85
2021/12/28 11:11:54;;;;;;;;;;;6.20;99.90;;;;;;6121811;23;20289;-86
2021/12/28 11:14:21;;;;;;;;;;;6.20;99.90;;;;;;6124013;23;19932;-86
2021/12/28 11:16:50;;;;;;;;;;;6.20;99.90;;;;;;6147038;23;20404;-84
2021/12/28 11:19:21;;;;;;;;;;;6.20;99.90;;;;;;6122834;23;19999;-84
2021/12/28 11:21:51;;;;;;;;;;;6.30;99.90;;;;;;6146047;23;20320;-84
2021/12/28 11:24:17;;;;;;;;;;;6.20;99.90;;;;;;6147299;23;20253;-83
2021/12/28 11:26:44;;;;;;;;;;;6.30;99.90;;;;;;6150334;23;19920;-83
2021/12/28 11:29:20;;;;;;;;;;;6.30;99.90;;;;;;6150290;23;19924;-85
2021/12/28 11:31:50;;;;;;;;;;;6.30;99.90;;;;;;6122583;23;19924;-84
2021/12/28 11:34:20;;;;;;;;;;;6.30;99.90;;;;;;6123445;23;20346;-84
2021/12/28 11:36:47;;;;;;;;;;;6.30;99.90;;;;;;6147143;23;19921;-86
2021/12/28 11:39:14;;;;;;;;;;;6.40;99.90;;;;;;6122677;23;20326;-83
2021/12/28 11:41:40;;;;;;;;;;;6.40;99.90;;;;;;6147525;23;19921;-83
2021/12/28 11:44:06;;;;;;;;;;;6.40;99.90;;;;;;6147451;23;19920;-84
2021/12/28 11:46:32;;;;;;;;;;;6.40;99.90;;;;;;6147747;23;19926;-85
2021/12/28 11:48:57;;;;;;;;;;;6.40;99.90;;;;;;6145429;23;19924;-85
2021/12/28 11:51:24;;;;;;;;;;;6.40;99.90;;;;;;6146721;23;19943;-84
2021/12/28 11:53:51;;;;;;;;;;;6.50;99.90;;;;;;6147554;23;20055;-85
2021/12/28 11:56:20;;;;;;;;;;;6.50;99.90;;;;;;6147678;23;19999;-87
2021/12/28 11:58:51;;;;;;;;;;;6.50;99.90;;;;;;6147166;23;20151;-84
2021/12/28 12:01:34;;;;;;;;;;;6.50;99.90;;;;;;6148353;23;19973;-84
2021/12/28 12:04:00;;;;;;;;;;;6.50;99.90;;;;;;6147569;23;20435;-84
2021/12/28 12:06:44;;;;;;;;;;;6.60;99.90;;;;;;6120013;23;19921;-85
2021/12/28 12:09:09;;;;;;;;;;;6.60;99.90;;;;;;6147513;23;20138;-84
2021/12/28 12:11:55;;;;;;;;;;;6.60;99.90;;;;;;6149911;23;19969;-88
2021/12/28 12:14:20;;;;;;;;;;;6.60;99.90;;;;;;6124812;23;19932;-85
2021/12/28 12:16:46;;;;;;;;;;;6.70;99.90;;;;;;6148389;23;19924;-86
2021/12/28 12:19:31;;;;;;;;;;;6.70;99.90;;;;;;6124437;23;19992;-87
2021/12/28 12:22:15;;;;;;;;;;;6.70;99.90;;;;;;6125100;23;20356;-86
2021/12/28 12:24:51;;;;;;;;;;;6.70;99.90;;;;;;6148330;23;19924;-86
2021/12/28 12:27:35;;;;;;;;;;;6.80;99.90;;;;;;6147453;23;19931;-86
2021/12/28 12:30:01;;;;;;;;;;;6.70;99.90;;;;;;6126452;23;19924;-86
2021/12/28 12:32:45;;;;;;;;;;;6.20;99.90;;;;;;6149864;23;19939;-84
2021/12/28 12:35:27;;;;;;;;;;;6.80;99.90;;;;;;6124493;23;19962;-84
2021/12/28 12:37:52;;;;;;;;;;;6.80;99.90;;;;;;6149214;23;20018;-87
2021/12/28 12:40:18;;;;;;;;;;;6.80;99.90;;;;;;6149513;23;20278;-88
2021/12/28 12:42:43;;;;;;;;;;;6.90;99.90;;;;;;6125386;23;20218;-84
2021/12/28 12:45:09;;;;;;;;;;;6.80;99.90;;;;;;6127014;23;19924;-87
2021/12/28 12:47:37;;;;;;;;;;;6.80;99.90;;;;;;6148644;23;20352;-85
2021/12/28 12:50:07;;;;;;;;;;;6.80;99.90;;;;;;6149470;23;20275;-85
2021/12/28 12:52:33;;;;;;;;;;;6.80;99.90;;;;;;6149919;23;19921;-86
2021/12/28 12:54:59;;;;;;;;;;;6.80;99.90;;;;;;6148442;23;19927;-85
2021/12/28 12:57:31;;;;;;;;;;;6.80;99.90;;;;;;6125211;23;19925;-84
2021/12/28 12:59:58;;;;;;;;;;;6.90;99.90;;;;;;6124818;23;19917;-85
2021/12/28 13:02:28;;;;;;;;;;;6.90;99.90;;;;;;6147907;23;19935;-84
2021/12/28 13:04:55;;;;;;;;;;;6.90;99.90;;;;;;6149266;23;19986;-85
2021/12/28 13:07:23;;;;;;;;;;;6.90;99.90;;;;;;6149396;23;19927;-86
2021/12/28 13:10:00;;;;;;;;;;;6.90;99.90;;;;;;6124502;23;19943;-87
2021/12/28 13:12:26;;;;;;;;;;;6.90;99.90;;;;;;6124296;23;19935;-87
2021/12/28 13:14:52;;;;;;;;;;;6.90;99.90;;;;;;6148396;23;20322;-85
2021/12/28 13:17:20;;;;;;;;;;;6.90;99.90;;;;;;6149095;23;19932;-86
2021/12/28 13:19:55;;;;;;;;;;;7.00;99.90;;;;;;6151338;23;19920;-85
2021/12/28 13:22:20;;;;;;;;;;;7.00;99.90;;;;;;6149287;23;19921;-86
2021/12/28 13:24:46;;;;;;;;;;;7.00;99.90;;;;;;6149809;23;19991;-86
2021/12/28 13:27:18;;;;;;;;;;;7.00;99.90;;;;;;6149789;23;19932;-87
2021/12/28 13:29:43;;;;;;;;;;;7.00;99.90;;;;;;6124548;23;20296;-87
2021/12/28 13:32:12;;;;;;;;;;;7.00;99.90;;;;;;6123617;23;19929;-85
2021/12/28 13:34:56;;;;;;;;;;;7.00;99.90;;;;;;6147031;23;19991;-86
2021/12/28 13:37:36;;;;;;;;;;;7.00;99.90;;;;;;6123632;23;19950;-85
2021/12/28 13:40:10;;;;;;;;;;;7.10;99.90;;;;;;6125582;23;20349;-85
2021/12/28 13:42:40;;;;;;;;;;;7.10;99.90;;;;;;6147655;23;19933;-85
2021/12/28 13:45:07;;;;;;;;;;;7.10;99.90;;;;;;6149263;23;20027;-85
2021/12/28 13:47:35;;;;;;;;;;;7.10;99.90;;;;;;6150821;23;20344;-88
2021/12/28 13:50:08;;;;;;;;;;;7.10;99.90;;;;;;6150400;23;19995;-87
2021/12/28 13:52:50;;;;;;;;;;;7.10;99.90;;;;;;6147484;23;19920;-87
2021/12/28 13:55:17;;;;;;;;;;;7.10;99.90;;;;;;6148553;23;19921;-86
2021/12/28 13:57:43;;;;;;;;;;;7.10;99.90;;;;;;6123181;23;20334;-85
2021/12/28 14:00:11;;;;;;;;;;;7.10;99.90;;;;;;6149521;23;19924;-86
2021/12/28 14:02:36;;;;;;;;;;;7.10;99.90;;;;;;6152531;23;19928;-87
2021/12/28 14:05:02;;;;;;;;;;;7.10;99.90;;;;;;6147690;23;20330;-89
2021/12/28 14:07:28;;;;;;;;;;;7.40;99.90;;;;;;6147069;23;19975;-85
2021/12/28 14:09:53;;;;;;;;;;;7.10;99.90;;;;;;6148777;23;20296;-84
2021/12/28 14:12:19;;;;;;;;;;;7.10;99.90;;;;;;6150843;23;19921;-87
2021/12/28 14:14:48;;;;;;;;;;;7.10;99.90;;;;;;6151109;23;19927;-86
2021/12/28 14:17:14;;;;;;;;;;;7.10;99.90;;;;;;6149625;23;19999;-86
2021/12/28 14:19:44;;;;;;;;;;;7.10;99.90;;;;;;6149267;23;19916;-87
2021/12/28 14:22:09;;;;;;;;;;;7.10;99.90;;;;;;6145605;23;19925;-88
2021/12/28 14:24:35;;;;;;;;;;;7.10;99.90;;;;;;6147222;23;19921;-86
2021/12/28 14:27:00;;;;;;;;;;;7.10;99.90;;;;;;6147420;23;19924;-86
2021/12/28 14:29:27;;;;;;;;;;;7.10;99.90;;;;;;6149832;23;19921;-87
2021/12/28 14:31:54;;;;;;;;;;;7.10;99.90;;;;;;6149180;23;19952;-85
2021/12/28 14:34:33;;;;;;;;;;;7.20;99.90;;;;;;6146968;23;19924;-86